首页
METAR-TAF:

METAR-TAF

机场 :

寧波櫟社國際機場

宁波市, 中华人民共和国

纬度: 29-49-36N, 经度: 121-27-43E, 海拔: 4米

当前天气观测

该预报发布于29分钟前的04:00 UTC
风速2节,风向多变
温度 14°C
湿度 100%
气压 1019 hPa
能見度: 5000
散云层高于500英尺
多云层高于1600英尺
阴天层高于5000英尺
小雨, 轻雾

METAR: ZSNB 180400Z VRB01MPS 5000 -RA BR SCT005 BKN016 OVC050 14/14 Q1019 NOSIG

时间: 12:29 (04:29 UTC)

预报

该预报发布于9小时和4分钟前的19:25 UTC
预报有效从18日的 00点(UTC)到 18日的 24点(UTC)
风速8节,风向
能見度: 3000
散云层高于600英尺
多云层高于2000英尺
小雨, 轻雾

TAF: ZSNB 171925Z 1800/1824 36004MPS 3000 -RA BR SCT006 BKN020 TX15/1806Z TN11/1821Z

超过4000个机场的气象观测和天气预报(METAR&TAF报告)。

可查询的气象台以黄色和红色小点在地图上表示。

将鼠标移到小点上方,可查看气象台名称。

然后点击查看天气观测和预报。

如需切换地图:点击带黑十字的绿色按钮放大地图;点击带横线的绿色按钮缩小地图;或者点击绿色箭头查看邻近地区的地图。


METAR-TAF: